ADDS METAR Data INFO
IDs: Format: Raw Decoded Include TAF

Data at: 0839 UTC 21 Oct 2017

KCIU 210756Z AUTO 16005KT 10SM CLR 12/09 A3003 RMK AO2 SLP192 T01170089 PNO $
KCIU 210656Z AUTO 16005KT 10SM CLR 12/09 A3004 RMK AO2 SLP194 T01170089 PNO $
KCIU 210556Z AUTO 19004KT 10SM CLR 15/10 A3002 RMK AO2 SLP187 6//// T01500100 10167 20139 53004 PNO $
KCIU 210456Z AUTO 19004KT 10SM CLR 14/11 A3002 RMK AO2 SLP186 T01440111 402110089 TSNO PNO $
KCIU 210356Z AUTO 20004KT 10SM CLR 14/11 A3001 RMK AO2 SLP184 T01440111 PNO $
KCIU 210256Z AUTO 20003KT 10SM CLR 14/11 A3001 RMK AO2 SLP185 6//// T01440111 52005 PNO $
KCIU 210156Z AUTO 19004KT 10SM CLR 15/12 A3000 RMK AO2 SLP184 T01500117 PNO $
KCIU 210056Z AUTO 20004KT 10SM CLR 16/12 A3000 RMK AO2 SLP183 T01610117 PNO $
KCIU 202356Z AUTO 20005KT 10SM CLR 17/12 A2999 RMK AO2 SLP182 6//// T01670117 10211 20167 55001 PNO $
KCIU 202256Z AUTO 21006KT 10SM CLR 18/11 A2999 RMK AO2 SLP179 T01830111 PNO $
KCIU 202156Z AUTO 23008G14KT 10SM CLR 21/11 A2999 RMK AO2 SLP180 T02060111 PNO $
KCIU 202056Z AUTO 23008G17KT 190V250 10SM CLR 21/12 A3000 RMK AO2 SLP181 6//// T02110117 56008 PNO $
KCIU 201956Z AUTO 23010G14KT 200V260 10SM CLR 21/11 A3000 RMK AO2 SLP183 T02110111 PNO $
KCIU 201856Z AUTO 24008KT 10SM CLR 21/12 A3001 RMK AO2 SLP187 T02060117 PNO $
KCIU 201756Z AUTO 22010G14KT 10SM CLR 21/11 A3002 RMK AO2 SLP190 6//// T02060111 10206 20106 58017 PNO $
KCIU 201656Z AUTO 23009G17KT 10SM CLR 20/10 A3004 RMK AO2 SLP198 T02000100 PNO $
KCIU 201556Z AUTO VRB06KT 10SM CLR 18/09 A3006 RMK AO2 SLP204 T01830089 PNO $
KCIU 201456Z AUTO VRB04KT 10SM CLR 17/07 A3007 RMK AO2 SLP210 6//// T01670072 58001 PNO $
KCIU 201356Z AUTO 21006KT 10SM CLR 14/07 A3008 RMK AO2 SLP213 T01440067 PNO $
KCIU 201256Z AUTO 21005KT 10SM CLR 12/08 A3008 RMK AO2 SLP216 T01220083 PNO $
KCIU 201156Z AUTO VRB03KT 10SM CLR 11/09 A3008 RMK AO2 SLP214 6//// 7//// T01060089 10111 20094 58003 PNO $
KCIU 201056Z AUTO 19005KT 10SM CLR 10/09 A3008 RMK AO2 SLP215 T01000089 PNO $
KCIU 200956Z AUTO 20005KT 10SM CLR 11/09 A3008 RMK AO2 SLP214 T01060089 PNO $
KCIU 200856Z AUTO 20005KT 10SM CLR 10/09 A3008 RMK AO2 SLP215 6//// T01000089 55001 PNO $
KCIU 200756Z AUTO 22004KT 10SM CLR 10/09 A3008 RMK AO2 SLP214 T01000089 PNO $
KCIU 200656Z AUTO 23005KT 10SM CLR 11/09 A3008 RMK AO2 SLP213 T01060089 PNO $
KCIU 200556Z AUTO 23005KT 10SM CLR 11/08 A3009 RMK AO2 SLP216 6//// T01060083 10111 20089 51010 PNO $
KCIU 200456Z AUTO 25004KT 10SM CLR 09/07 A3008 RMK AO2 SLP215 T00940072 401610072 PNO $
KCIU 200356Z AUTO 24004KT 10SM CLR 09/06 A3006 RMK AO2 SLP209 T00940061 PNO $
KCIU 200256Z AUTO 22004KT 10SM CLR 09/04 A3006 RMK AO2 SLP207 6//// T00940044 51008 PNO $
KCIU 200156Z AUTO 26004KT 10SM CLR 09/01 A3005 RMK AO2 SLP205 T00940006 PNO $
KCIU 200056Z AUTO 25004KT 10SM CLR 10/M02 A3005 RMK AO2 SLP206 T01001022 PNO $
KCIU 192356Z AUTO 29004KT 10SM CLR 11/M05 A3003 RMK AO2 SLP201 6//// T01111050 10161 20111 51020 PNO $
KCIU 192256Z AUTO 28005KT 10SM CLR 13/M04 A3002 RMK AO2 SLP196 T01281039 PNO $
KCIU 192156Z AUTO 29011KT 10SM CLR 16/M04 A3000 RMK AO2 SLP184 T01561044 PNO $
KCIU 192056Z AUTO 28015G24KT 10SM CLR 16/M04 A2997 RMK AO2 SLP175 6//// T01561044 50004 PNO $